createdAt,value
2018-08-03T00:01:37.967Z,5.08
2018-08-03T00:04:06.039Z,5.87
2018-08-03T00:06:34.113Z,5.55
2018-08-03T00:09:02.580Z,5.45
2018-08-03T00:11:30.666Z,5.90
2018-08-03T00:13:58.754Z,6.15
2018-08-03T00:16:26.815Z,5.72
2018-08-03T00:18:54.907Z,6.12
2018-08-03T00:21:22.863Z,5.53
2018-08-03T00:23:50.938Z,5.70
2018-08-03T00:26:18.806Z,5.42
2018-08-03T00:28:46.882Z,5.40
2018-08-03T00:31:15.019Z,6.03
2018-08-03T00:33:43.058Z,5.40
2018-08-03T00:36:11.129Z,5.90
2018-08-03T00:38:39.236Z,6.33
2018-08-03T00:41:07.330Z,5.58
2018-08-03T00:43:35.417Z,5.72
2018-08-03T00:46:03.761Z,4.95
2018-08-03T00:48:31.845Z,5.85
2018-08-03T00:51:00.027Z,5.50
2018-08-03T00:53:28.088Z,5.70
2018-08-03T00:55:56.261Z,6.42
2018-08-03T00:58:24.741Z,5.85
2018-08-03T01:00:52.820Z,5.75
2018-08-03T01:03:21.016Z,5.42
2018-08-03T01:05:49.099Z,6.10
2018-08-03T01:08:17.246Z,6.35
2018-08-03T01:10:45.347Z,5.92
2018-08-03T01:13:13.414Z,6.40
2018-08-03T01:15:41.527Z,6.37
2018-08-03T01:18:09.615Z,6.85
2018-08-03T01:20:37.781Z,7.50
2018-08-03T01:23:05.874Z,6.47
2018-08-03T01:25:33.945Z,7.22
2018-08-03T01:28:02.050Z,7.03
2018-08-03T01:30:30.165Z,7.03
2018-08-03T01:32:58.243Z,7.28
2018-08-03T01:35:26.651Z,6.97
2018-08-03T01:37:54.819Z,6.92
2018-08-03T01:40:22.794Z,7.40
2018-08-03T01:42:50.890Z,7.43
2018-08-03T01:45:18.738Z,7.10
2018-08-03T01:47:47.091Z,8.10
2018-08-03T01:50:15.178Z,8.20
2018-08-03T01:52:43.250Z,8.00
2018-08-03T01:55:11.362Z,7.60
2018-08-03T01:57:39.450Z,7.80
2018-08-03T02:00:07.784Z,7.80
2018-08-03T02:02:35.670Z,7.83
2018-08-03T02:05:03.742Z,8.03
2018-08-03T02:07:31.866Z,7.97
2018-08-03T02:09:59.940Z,8.23
2018-08-03T02:12:28.023Z,8.00
2018-08-03T02:14:56.090Z,8.60
2018-08-03T02:17:24.158Z,8.17
2018-08-03T02:19:52.251Z,8.70
2018-08-03T02:22:20.374Z,8.43
2018-08-03T02:24:48.490Z,8.63
2018-08-03T02:27:16.666Z,9.60
2018-08-03T02:29:44.820Z,7.83
2018-08-03T02:32:12.910Z,7.33
2018-08-03T02:34:40.982Z,7.17
2018-08-03T02:37:09.141Z,7.90
2018-08-03T02:39:37.232Z,7.87
2018-08-03T02:42:05.374Z,7.70
2018-08-03T02:44:33.460Z,8.10
2018-08-03T02:47:01.547Z,8.17
2018-08-03T02:49:29.623Z,7.57
2018-08-03T02:51:57.698Z,8.33
2018-08-03T02:54:25.782Z,8.67
2018-08-03T02:56:53.852Z,8.87
2018-08-03T02:59:22.200Z,8.17
2018-08-03T03:01:50.298Z,9.33
2018-08-03T03:04:18.390Z,8.30
2018-08-03T03:06:46.505Z,7.37
2018-08-03T03:09:14.571Z,7.63
2018-08-03T03:11:42.971Z,7.23
2018-08-03T03:14:11.069Z,7.70
2018-08-03T03:16:39.149Z,7.73
2018-08-03T03:19:07.225Z,8.23
2018-08-03T03:21:35.340Z,7.97
2018-08-03T03:24:03.450Z,8.20
2018-08-03T03:26:31.533Z,8.17
2018-08-03T03:28:59.646Z,8.63
2018-08-03T03:31:27.729Z,8.20
2018-08-03T03:33:55.831Z,7.47
2018-08-03T03:36:23.902Z,8.50
2018-08-03T03:38:51.978Z,8.27
2018-08-03T03:41:20.094Z,8.10
2018-08-03T03:43:48.160Z,9.27
2018-08-03T03:46:16.255Z,10.10
2018-08-03T03:48:44.646Z,8.50
2018-08-03T03:51:12.714Z,8.10
2018-08-03T03:53:40.630Z,8.47
2018-08-03T03:56:08.722Z,8.43
2018-08-03T03:58:36.767Z,9.00
2018-08-03T04:01:04.884Z,8.97
2018-08-03T04:03:33.104Z,8.43
2018-08-03T04:06:01.155Z,8.70
2018-08-03T04:08:29.254Z,8.47
2018-08-03T04:10:57.366Z,8.13
2018-08-03T04:13:25.434Z,7.80
2018-08-03T04:15:53.534Z,7.77
2018-08-03T04:18:22.380Z,7.90
2018-08-03T04:20:51.882Z,7.90
2018-08-03T04:23:20.498Z,8.03
2018-08-03T04:25:48.598Z,7.57
2018-08-03T04:28:16.694Z,7.33
2018-08-03T04:30:44.760Z,8.03
2018-08-03T04:33:13.570Z,7.70
2018-08-03T04:35:41.719Z,8.53
2018-08-03T04:38:10.136Z,9.47
2018-08-03T04:40:38.302Z,10.30
2018-08-03T04:43:06.420Z,11.05
2018-08-03T04:45:34.516Z,9.33
2018-08-03T04:48:02.597Z,9.83
2018-08-03T04:50:30.977Z,8.57
2018-08-03T04:52:59.054Z,10.13
2018-08-03T04:55:27.190Z,9.77
2018-08-03T04:57:55.292Z,10.13
2018-08-03T05:00:23.675Z,9.07
2018-08-03T05:02:51.773Z,9.83
2018-08-03T05:05:19.869Z,10.00
2018-08-03T05:07:47.962Z,11.17
2018-08-03T05:10:16.044Z,10.33
2018-08-03T05:12:44.450Z,10.77
2018-08-03T05:15:12.558Z,10.70
2018-08-03T05:17:40.634Z,11.00
2018-08-03T05:20:08.890Z,11.40
2018-08-03T05:22:37.025Z,11.55
2018-08-03T05:25:05.694Z,10.97
2018-08-03T05:27:33.798Z,10.77
2018-08-03T05:30:02.116Z,11.03
2018-08-03T05:32:30.225Z,11.33
2018-08-03T05:34:58.374Z,10.80
2018-08-03T05:37:26.718Z,10.73
2018-08-03T05:39:54.815Z,11.10
2018-08-03T05:42:23.072Z,11.80
2018-08-03T05:44:50.949Z,11.67
2018-08-03T05:47:19.078Z,12.33
2018-08-03T05:49:47.486Z,11.10
2018-08-03T05:52:15.605Z,12.73
2018-08-03T05:54:43.691Z,17.47
2018-08-03T05:57:11.782Z,22.17
2018-08-03T05:59:39.866Z,21.52
2018-08-03T06:02:08.342Z,19.10
2018-08-03T06:04:36.426Z,19.73
2018-08-03T06:07:04.519Z,21.20
2018-08-03T06:09:32.647Z,18.75
2018-08-03T06:12:00.765Z,17.30
2018-08-03T06:14:29.143Z,17.30
2018-08-03T06:16:57.254Z,16.45
2018-08-03T06:19:25.352Z,15.28
2018-08-03T06:21:53.455Z,13.95
2018-08-03T06:24:21.541Z,14.33
2018-08-03T06:26:49.890Z,13.55
2018-08-03T06:29:17.987Z,13.62
2018-08-03T06:31:46.167Z,13.93
2018-08-03T06:34:14.246Z,14.75
2018-08-03T06:36:42.366Z,14.28
2018-08-03T06:39:10.891Z,13.80
2018-08-03T06:41:38.994Z,14.00
2018-08-03T06:44:07.132Z,13.62
2018-08-03T06:46:35.223Z,14.10
2018-08-03T06:49:03.310Z,15.38
2018-08-03T06:51:31.744Z,14.55
2018-08-03T06:53:59.839Z,13.70
2018-08-03T06:56:28.100Z,15.08
2018-08-03T06:58:56.214Z,13.28
2018-08-03T07:01:24.286Z,13.35
2018-08-03T07:03:52.723Z,12.85
2018-08-03T07:06:20.945Z,13.62
2018-08-03T07:08:49.047Z,13.05
2018-08-03T07:11:17.190Z,12.60
2018-08-03T07:13:45.286Z,12.68
2018-08-03T07:16:17.578Z,12.95
2018-08-03T07:18:45.687Z,13.28
2018-08-03T07:21:13.942Z,12.45
2018-08-03T07:23:42.210Z,10.63
2018-08-03T07:26:10.292Z,11.63
2018-08-03T07:28:38.558Z,10.40
2018-08-03T07:31:06.638Z,10.75
2018-08-03T07:33:34.723Z,9.50
2018-08-03T07:36:02.794Z,10.43
2018-08-03T07:38:30.850Z,8.63
2018-08-03T07:40:58.949Z,8.23
2018-08-03T07:43:27.092Z,8.20
2018-08-03T07:45:55.160Z,8.50
2018-08-03T07:48:23.238Z,7.22
2018-08-03T07:50:51.314Z,6.80
2018-08-03T07:53:19.722Z,7.77
2018-08-03T07:55:47.819Z,6.62
2018-08-03T07:58:15.914Z,7.05
2018-08-03T08:00:44.119Z,6.40
2018-08-03T08:03:12.397Z,6.55
2018-08-03T08:05:40.459Z,5.95
2018-08-03T08:08:08.524Z,5.72
2018-08-03T08:10:36.896Z,5.60
2018-08-03T08:13:05.128Z,5.95
2018-08-03T08:15:33.340Z,6.22
2018-08-03T08:18:01.567Z,5.17
2018-08-03T08:20:29.787Z,6.15
2018-08-03T08:22:57.840Z,6.05
2018-08-03T08:25:25.906Z,6.40
2018-08-03T08:27:53.991Z,6.40
2018-08-03T08:30:22.143Z,6.03
2018-08-03T08:32:50.286Z,6.10
2018-08-03T08:35:18.604Z,7.30
2018-08-03T08:37:46.693Z,6.40
2018-08-03T08:40:15.104Z,6.45
2018-08-03T08:42:43.182Z,6.60
2018-08-03T08:45:11.268Z,5.97
2018-08-03T08:47:39.731Z,5.87
2018-08-03T08:50:08.523Z,6.65
2018-08-03T08:52:36.623Z,6.33
2018-08-03T08:55:04.976Z,5.42
2018-08-03T08:57:33.354Z,5.87
2018-08-03T09:00:01.655Z,5.97
2018-08-03T09:02:29.758Z,6.37
2018-08-03T09:04:58.085Z,5.75
2018-08-03T09:07:26.222Z,6.00
2018-08-03T09:09:54.288Z,5.28
2018-08-03T09:12:22.419Z,5.62
2018-08-03T09:14:50.267Z,5.92
2018-08-03T09:17:18.414Z,4.78
2018-08-03T09:19:46.612Z,5.15
2018-08-03T09:22:14.717Z,4.37
2018-08-03T09:24:42.796Z,4.67
2018-08-03T09:27:10.761Z,4.37
2018-08-03T09:29:38.718Z,4.62
2018-08-03T09:32:06.845Z,4.85
2018-08-03T09:34:34.942Z,3.87
2018-08-03T09:37:03.011Z,4.50
2018-08-03T09:39:31.107Z,4.22
2018-08-03T09:41:59.218Z,4.28
2018-08-03T09:44:27.110Z,3.52
2018-08-03T09:46:55.303Z,4.55
2018-08-03T09:49:23.374Z,4.42
2018-08-03T09:51:51.448Z,4.20
2018-08-03T09:54:19.540Z,4.22
2018-08-03T09:56:47.418Z,4.12
2018-08-03T09:59:15.509Z,4.03
2018-08-03T10:01:43.670Z,3.52
2018-08-03T10:04:11.746Z,4.45
2018-08-03T10:06:39.818Z,3.30
2018-08-03T10:09:08.482Z,3.67
2018-08-03T10:11:36.418Z,3.60
2018-08-03T10:14:04.550Z,3.17
2018-08-03T10:16:32.634Z,3.77
2018-08-03T10:19:00.838Z,3.77
2018-08-03T10:21:28.910Z,4.22
2018-08-03T10:23:57.016Z,4.55
2018-08-03T10:26:25.082Z,3.60
2018-08-03T10:28:53.558Z,3.40
2018-08-03T10:31:21.688Z,3.72
2018-08-03T10:33:49.947Z,3.80
2018-08-03T10:36:18.019Z,3.95
2018-08-03T10:38:46.218Z,4.10
2018-08-03T10:41:14.390Z,3.52
2018-08-03T10:43:42.504Z,3.80
2018-08-03T10:46:10.866Z,3.90
2018-08-03T10:48:38.986Z,3.67
2018-08-03T10:51:07.405Z,4.45
2018-08-03T10:53:35.530Z,3.60
2018-08-03T10:56:03.650Z,4.10
2018-08-03T10:58:31.748Z,3.77
2018-08-03T11:00:59.844Z,3.80
2018-08-03T11:03:28.275Z,3.80
2018-08-03T11:05:56.374Z,3.47
2018-08-03T11:08:24.514Z,3.47
2018-08-03T11:10:52.590Z,3.17
2018-08-03T11:13:20.662Z,3.25
2018-08-03T11:15:49.147Z,3.10
2018-08-03T11:18:17.226Z,3.62
2018-08-03T11:20:45.299Z,3.00
2018-08-03T11:23:13.370Z,3.27
2018-08-03T11:25:41.446Z,3.37
2018-08-03T11:28:09.771Z,3.20
2018-08-03T11:30:37.637Z,3.10
2018-08-03T11:33:05.535Z,3.22
2018-08-03T11:35:33.638Z,3.33
2018-08-03T11:38:01.697Z,3.98
2018-08-03T11:40:30.059Z,3.17
2018-08-03T11:42:58.142Z,2.67
2018-08-03T11:45:26.217Z,2.60
2018-08-03T11:47:54.376Z,3.50
2018-08-03T11:50:22.466Z,2.95
2018-08-03T11:52:50.942Z,3.10
2018-08-03T11:55:19.010Z,3.30
2018-08-03T11:57:47.102Z,3.17
2018-08-03T12:00:15.177Z,2.70
2018-08-03T12:02:43.298Z,2.90
2018-08-03T12:05:11.659Z,3.00
2018-08-03T12:07:39.746Z,3.80
2018-08-03T12:10:07.822Z,2.55
2018-08-03T12:12:35.981Z,2.92
2018-08-03T12:15:04.020Z,2.70
2018-08-03T12:17:32.372Z,2.67
2018-08-03T12:20:00.506Z,2.80
2018-08-03T12:22:28.603Z,2.67
2018-08-03T12:24:56.785Z,3.53
2018-08-03T12:27:24.839Z,2.90
2018-08-03T12:29:53.351Z,3.10
2018-08-03T12:32:21.458Z,2.80
2018-08-03T12:34:49.506Z,3.05
2018-08-03T12:37:17.795Z,3.02
2018-08-03T12:39:45.854Z,2.80
2018-08-03T12:42:14.217Z,2.85
2018-08-03T12:44:42.318Z,3.02
2018-08-03T12:47:11.434Z,2.95
2018-08-03T12:49:39.495Z,2.75
2018-08-03T12:52:07.734Z,2.60
2018-08-03T12:54:35.807Z,2.70
2018-08-03T12:57:03.864Z,3.00
2018-08-03T12:59:31.986Z,3.30
2018-08-03T13:02:00.007Z,3.50
2018-08-03T13:04:28.118Z,2.92
2018-08-03T13:06:56.475Z,3.00
2018-08-03T13:09:24.576Z,2.80
2018-08-03T13:11:52.649Z,2.83
2018-08-03T13:14:20.732Z,2.37
2018-08-03T13:16:48.831Z,3.12
2018-08-03T13:19:17.241Z,2.65
2018-08-03T13:21:45.325Z,3.05
2018-08-03T13:24:13.551Z,3.47
2018-08-03T13:26:41.650Z,2.72
2018-08-03T13:29:09.706Z,2.92
2018-08-03T13:31:37.778Z,3.45
2018-08-03T13:34:06.003Z,2.90
2018-08-03T13:36:34.376Z,3.37
2018-08-03T13:39:02.576Z,3.40
2018-08-03T13:41:30.571Z,3.30
2018-08-03T13:43:58.652Z,3.05
2018-08-03T13:46:26.713Z,3.30
2018-08-03T13:48:54.592Z,2.92
2018-08-03T13:51:22.658Z,3.35
2018-08-03T13:53:50.953Z,2.70
2018-08-03T13:56:19.178Z,2.50
2018-08-03T13:58:47.612Z,2.90
2018-08-03T14:01:26.967Z,2.85
2018-08-03T14:03:55.052Z,3.10
2018-08-03T14:06:23.581Z,3.00
2018-08-03T14:08:51.707Z,2.95
2018-08-03T14:11:20.178Z,2.58
2018-08-03T14:13:48.503Z,2.75
2018-08-03T14:16:16.638Z,2.95
2018-08-03T14:18:46.376Z,3.10
2018-08-03T14:21:14.233Z,3.08
2018-08-03T14:23:42.480Z,2.70
2018-08-03T14:26:10.614Z,2.50
2018-08-03T14:28:38.711Z,3.10
2018-08-03T14:31:06.806Z,2.65
2018-08-03T14:33:34.852Z,2.83
2018-08-03T14:36:03.022Z,2.75
2018-08-03T14:38:31.064Z,2.80
2018-08-03T14:40:59.123Z,2.58
2018-08-03T14:43:27.562Z,2.35
2018-08-03T14:45:55.637Z,2.60
2018-08-03T14:48:23.769Z,2.58
2018-08-03T14:50:51.863Z,2.40
2018-08-03T14:53:19.995Z,1.90
2018-08-03T14:55:48.420Z,2.35
2018-08-03T14:58:16.524Z,2.27
2018-08-03T15:00:44.614Z,2.58
2018-08-03T15:03:12.674Z,2.00
2018-08-03T15:05:40.737Z,2.22
2018-08-03T15:08:08.843Z,2.30
2018-08-03T15:10:36.965Z,1.87
2018-08-03T15:13:05.259Z,1.90
2018-08-03T15:15:33.359Z,1.95
2018-08-03T15:18:01.424Z,1.98
2018-08-03T15:20:29.562Z,1.95
2018-08-03T15:22:57.645Z,1.72
2018-08-03T15:25:25.718Z,1.80
2018-08-03T15:27:53.791Z,1.70
2018-08-03T15:30:21.862Z,1.45
2018-08-03T15:32:49.920Z,1.82
2018-08-03T15:35:18.085Z,1.15
2018-08-03T15:37:46.878Z,1.57
2018-08-03T15:40:14.975Z,1.40
2018-08-03T15:42:43.053Z,1.27
2018-08-03T15:45:11.127Z,1.60
2018-08-03T15:47:39.197Z,1.57
2018-08-03T15:50:07.278Z,1.67
2018-08-03T15:52:35.714Z,1.27
2018-08-03T15:55:03.809Z,1.17
2018-08-03T15:57:31.928Z,1.07
2018-08-03T15:59:59.991Z,1.30
2018-08-03T16:02:28.068Z,1.30
2018-08-03T16:04:56.482Z,1.20
2018-08-03T16:07:24.542Z,1.40
2018-08-03T16:09:52.590Z,1.40
2018-08-03T16:12:20.766Z,2.02
2018-08-03T16:14:48.834Z,1.30
2018-08-03T16:17:16.943Z,1.30
2018-08-03T16:19:45.213Z,1.50
2018-08-03T16:22:13.278Z,1.30
2018-08-03T16:24:41.400Z,1.37
2018-08-03T16:27:09.520Z,1.30
2018-08-03T16:29:37.575Z,1.50
2018-08-03T16:32:06.004Z,1.25
2018-08-03T16:34:34.076Z,1.20
2018-08-03T16:37:02.142Z,1.27
2018-08-03T16:39:30.219Z,1.27
2018-08-03T16:41:58.359Z,1.40
2018-08-03T16:44:26.478Z,1.30
2018-08-03T16:46:54.583Z,1.55
2018-08-03T16:49:22.666Z,1.00
2018-08-03T16:51:50.742Z,1.22
2018-08-03T16:54:19.171Z,1.40
2018-08-03T16:56:47.246Z,1.40
2018-08-03T16:59:15.318Z,1.30
2018-08-03T17:01:43.379Z,1.30
2018-08-03T17:04:11.477Z,1.47
2018-08-03T17:06:39.836Z,1.20
2018-08-03T17:09:08.934Z,1.30
2018-08-03T17:11:37.218Z,1.27
2018-08-03T17:14:05.335Z,1.07
2018-08-03T17:16:33.554Z,1.50
2018-08-03T17:19:01.625Z,1.57
2018-08-03T17:21:29.699Z,1.12
2018-08-03T17:23:57.975Z,1.67
2018-08-03T17:26:26.059Z,1.40
2018-08-03T17:28:54.130Z,1.40
2018-08-03T17:31:22.583Z,1.30
2018-08-03T17:33:50.683Z,1.15
2018-08-03T17:36:18.767Z,1.20
2018-08-03T17:38:46.827Z,1.50
2018-08-03T17:41:14.972Z,0.90
2018-08-03T17:43:43.050Z,1.20
2018-08-03T17:46:11.140Z,1.50
2018-08-03T17:48:39.210Z,1.30
2018-08-03T17:51:07.290Z,1.20
2018-08-03T17:53:35.358Z,1.50
2018-08-03T17:56:03.507Z,1.30
2018-08-03T17:58:31.546Z,1.12
2018-08-03T18:00:59.628Z,1.30
2018-08-03T18:03:27.712Z,1.62
2018-08-03T18:05:55.801Z,1.30
2018-08-03T18:08:24.180Z,1.30
2018-08-03T18:10:52.322Z,1.32
2018-08-03T18:13:20.515Z,1.20
2018-08-03T18:15:48.595Z,1.32
2018-08-03T18:18:16.653Z,1.65
2018-08-03T18:20:45.042Z,1.70
2018-08-03T18:23:13.108Z,1.37
2018-08-03T18:25:41.199Z,1.60
2018-08-03T18:28:09.719Z,1.62
2018-08-03T18:30:37.751Z,1.37
2018-08-03T18:33:06.234Z,1.57
2018-08-03T18:35:34.343Z,1.62
2018-08-03T18:38:02.595Z,1.32
2018-08-03T18:40:30.738Z,1.75
2018-08-03T18:42:58.759Z,1.67
2018-08-03T18:45:26.950Z,1.70
2018-08-03T18:47:55.024Z,1.70
2018-08-03T18:50:23.157Z,1.67
2018-08-03T18:52:51.242Z,1.60
2018-08-03T18:55:19.947Z,1.70
2018-08-03T18:57:48.379Z,1.40
2018-08-03T19:00:16.483Z,2.00
2018-08-03T19:02:44.554Z,3.05
2018-08-03T19:05:12.779Z,1.80
2018-08-03T19:07:40.908Z,2.00
2018-08-03T19:10:08.917Z,2.10
2018-08-03T19:12:36.938Z,2.20
2018-08-03T19:15:05.959Z,1.80
2018-08-03T19:17:34.073Z,1.85
2018-08-03T19:20:02.314Z,2.12
2018-08-03T19:22:30.818Z,2.02
2018-08-03T19:24:58.954Z,1.72
2018-08-03T19:27:27.171Z,1.77
2018-08-03T19:29:55.243Z,1.70
2018-08-03T19:32:23.410Z,1.60
2018-08-03T19:34:51.803Z,1.87
2018-08-03T19:37:19.898Z,2.12
2018-08-03T19:39:48.007Z,2.05
2018-08-03T19:42:16.079Z,1.80
2018-08-03T19:44:44.022Z,1.80
2018-08-03T19:47:12.653Z,1.80
2018-08-03T19:49:40.677Z,1.67
2018-08-03T19:52:08.746Z,2.27
2018-08-03T19:54:36.802Z,2.10
2018-08-03T19:57:04.926Z,1.67
2018-08-03T19:59:33.014Z,1.75
2018-08-03T20:02:01.090Z,1.52
2018-08-03T20:04:29.187Z,1.67
2018-08-03T20:06:57.250Z,1.70
2018-08-03T20:09:25.334Z,1.87
2018-08-03T20:11:53.699Z,1.92
2018-08-03T20:14:21.811Z,1.90
2018-08-03T20:16:49.906Z,1.90
2018-08-03T20:19:17.991Z,2.15
2018-08-03T20:21:46.078Z,1.92
2018-08-03T20:24:14.478Z,1.75
2018-08-03T20:26:42.582Z,2.00
2018-08-03T20:29:10.680Z,1.57
2018-08-03T20:31:38.786Z,1.57
2018-08-03T20:34:06.901Z,2.10
2018-08-03T20:36:35.025Z,1.77
2018-08-03T20:39:03.419Z,2.15
2018-08-03T20:41:31.477Z,2.00
2018-08-03T20:43:59.546Z,1.90
2018-08-03T20:46:27.618Z,2.08
2018-08-03T20:48:55.702Z,2.10
2018-08-03T20:51:23.790Z,2.10
2018-08-03T20:53:51.866Z,14.50
2018-08-03T20:56:20.138Z,3.35
2018-08-03T20:58:48.190Z,2.20
2018-08-03T21:01:16.576Z,2.50
2018-08-03T21:03:44.633Z,1.85
2018-08-03T21:06:12.704Z,2.83
2018-08-03T21:08:40.926Z,2.40
2018-08-03T21:11:08.998Z,2.27
2018-08-03T21:13:37.330Z,2.12
2018-08-03T21:16:05.419Z,2.02
2018-08-03T21:18:33.519Z,2.10
2018-08-03T21:21:01.643Z,2.20
2018-08-03T21:23:29.742Z,2.27
2018-08-03T21:25:57.831Z,2.12
2018-08-03T21:28:25.902Z,2.00
2018-08-03T21:30:54.127Z,1.92
2018-08-03T21:33:22.277Z,2.37
2018-08-03T21:35:50.355Z,2.62
2018-08-03T21:38:18.465Z,2.52
2018-08-03T21:40:46.545Z,2.20
2018-08-03T21:43:14.609Z,2.40
2018-08-03T21:45:42.807Z,2.35
2018-08-03T21:48:10.962Z,2.02
2018-08-03T21:50:39.041Z,2.15
2018-08-03T21:53:07.126Z,2.25
2018-08-03T21:55:35.291Z,2.25
2018-08-03T21:58:03.392Z,2.12
2018-08-03T22:00:31.442Z,2.40
2018-08-03T22:02:59.505Z,2.30
2018-08-03T22:05:27.665Z,2.60
2018-08-03T22:07:56.050Z,2.17
2018-08-03T22:10:24.141Z,2.00
2018-08-03T22:12:52.198Z,2.50
2018-08-03T22:15:20.270Z,2.05
2018-08-03T22:17:48.362Z,2.05
2018-08-03T22:20:16.911Z,2.40
2018-08-03T22:22:44.983Z,2.20
2018-08-03T22:25:13.155Z,1.80
2018-08-03T22:27:41.202Z,2.15
2018-08-03T22:30:09.275Z,2.12
2018-08-03T22:32:37.744Z,1.95
2018-08-03T22:35:06.032Z,1.92
2018-08-03T22:37:34.171Z,2.02
2018-08-03T22:40:02.252Z,1.70
2018-08-03T22:42:30.321Z,1.92
2018-08-03T22:44:58.406Z,2.10
2018-08-03T22:47:26.493Z,2.08
2018-08-03T22:49:54.642Z,2.08
2018-08-03T22:52:22.927Z,2.08
2018-08-03T22:54:51.177Z,1.92
2018-08-03T22:57:19.321Z,1.87
2018-08-03T22:59:47.373Z,1.77
2018-08-03T23:02:15.442Z,2.08
2018-08-03T23:04:43.540Z,2.12
2018-08-03T23:07:11.603Z,2.30
2018-08-03T23:09:39.697Z,2.10
2018-08-03T23:12:08.065Z,2.35
2018-08-03T23:14:36.197Z,1.77
2018-08-03T23:17:04.404Z,1.92
2018-08-03T23:19:32.482Z,2.27
2018-08-03T23:22:00.550Z,2.30
2018-08-03T23:24:28.621Z,2.60
2018-08-03T23:26:57.006Z,1.95
2018-08-03T23:29:25.078Z,2.25
2018-08-03T23:31:53.147Z,2.12
2018-08-03T23:34:21.534Z,2.10
2018-08-03T23:36:49.634Z,2.67
2018-08-03T23:39:17.707Z,2.42
2018-08-03T23:41:45.765Z,2.20
2018-08-03T23:44:13.892Z,2.12
2018-08-03T23:46:41.983Z,2.52
2018-08-03T23:49:10.036Z,2.50
2018-08-03T23:51:38.107Z,2.33
2018-08-03T23:54:06.251Z,2.30
2018-08-03T23:56:34.338Z,2.50
2018-08-03T23:59:02.413Z,2.55
